Portada
METAR-TAF:

METAR-TAF

Aeroports :

Yeovilton, Anglaterra

latitud: 51-00N, longitud: 002-38W, altitud: 23 m

Observació

L'informe es va fer fa 28 minuts, a les 20:20 UTC
Vent 1 kt del Est
Temperatura 12°C
Humitat 58%
Pressió 1026 hPa
Visibilitat 10 km o més
sense núvols per sota de 1500 mi sense presència de cumulonimbus.

METAR: EGDY 072020Z 10001KT CAVOK 12/04 Q1026 NOSIG RMK BLU BLU

Hora: 21:48 (20:48 UTC)

Pronòstic

L'informe es va fer fa 6 hores i 37 minuts, a les 14:11 UTC
Pronòstic vàlid del 07 a les 15 UTC al 07 a les 24 UTC
Vent 7 kt del Est/Sud-Est
Visibilitat 10 km o més
Escasses núvols a una alçada de 4000 ft
Probabilitat 30% :
Temporalment
l' 07 a les 20 UTC al 07 a les 24 UTC
Visibilitat 10 km o més
Cel ennuvolat a una alçada de 6500 ft
xàfecs de pluja
Evolucionant progressivament
l' 07 a les 22 UTC al 07 a les 24 UTC
Vent 5 kt del Nord-Est

TAF: EGDY 071411Z 0715/0724 12007KT 9999 FEW040 PROB30 TEMPO 0720/0724 9999 -SHRA BKN065 BECMG 0722/0724 04005KT

Observacions i pronòstics meteorològics de més de 4000 aeroports (METAR i TAF).

Les estacions disponibles són els punts grocs i vermells al mapa.

Posi el ratolí al punt desitjat per veure el nom de l'estació.

Feu clic per veure les observacions i els pronòstics meteorològics.

Per canviar el mapa: feu clic els botons verds amb una creu de color negre per apropar; al botó verd amb un guió per allunyar la imatge; o en les fletxes verdes per a mapes adjacents.


METAR-TAF: